EJU48FH LFBO-LIMC
Flight info
| Callsign | EJU48FH |
|---|---|
| Flight time | 1h 1m |
| Altitude | 30000 |
| Route | MEN DCT NINUN DCT LATAM DCT ROMAM DCT ETIDO DCT NEDRU DCT RILIP DCT EMMEF DCT LAPRI DCT MOGBO DCT TOP M135 ASTIG |
| Aircraft | A319/M-SDE2E3FGIJ1RWXYZ/LB1 |
Departure
| Time | 2026-05-04 15:44 |
|---|---|
| Airport | Toulouse-Blagnac Airport (LFBO) |
Arrival
| Time | 2026-05-04 16:46 |
|---|---|
| Airport | Milan Malpensa International Airport (LIMC) |
| Time | Latitude | Longitude | Altitude | Speed | Heading |
|---|---|---|---|---|---|
| 2026-05-04 15:04 | 43.63000 | 1.37272 | 494 ft | 0 kts | 53° |
| 2026-05-04 15:33 | 43.62999 | 1.37270 | 494 ft | 2 kts | 53° |
| 2026-05-04 15:34 | 43.62966 | 1.37185 | 487 ft | 4 kts | 128° |
| 2026-05-04 15:34 | 43.62977 | 1.37168 | 483 ft | 4 kts | 166° |
| 2026-05-04 15:34 | 43.62980 | 1.37168 | 483 ft | 1 kts | 142° |
| 2026-05-04 15:38 | 43.62972 | 1.37176 | 488 ft | 3 kts | 143° |
| 2026-05-04 15:38 | 43.62951 | 1.37198 | 490 ft | 5 kts | 143° |
| 2026-05-04 15:38 | 43.62916 | 1.37235 | 490 ft | 8 kts | 142° |
| 2026-05-04 15:38 | 43.62867 | 1.37286 | 494 ft | 10 kts | 143° |
| 2026-05-04 15:39 | 43.62806 | 1.37350 | 494 ft | 12 kts | 143° |
| 2026-05-04 15:39 | 43.62733 | 1.37426 | 494 ft | 14 kts | 143° |
| 2026-05-04 15:39 | 43.62608 | 1.37423 | 494 ft | 10 kts | 232° |
| 2026-05-04 15:40 | 43.62566 | 1.37350 | 491 ft | 9 kts | 229° |
| 2026-05-04 15:40 | 43.62507 | 1.37350 | 492 ft | 9 kts | 148° |
| 2026-05-04 15:40 | 43.62449 | 1.37412 | 490 ft | 12 kts | 143° |
| 2026-05-04 15:40 | 43.62376 | 1.37488 | 491 ft | 14 kts | 143° |
| 2026-05-04 15:41 | 43.62290 | 1.37578 | 494 ft | 17 kts | 142° |
| 2026-05-04 15:41 | 43.62189 | 1.37682 | 491 ft | 19 kts | 143° |
| 2026-05-04 15:41 | 43.62073 | 1.37802 | 494 ft | 22 kts | 143° |
| 2026-05-04 15:41 | 43.61937 | 1.37943 | 487 ft | 26 kts | 143° |
| 2026-05-04 15:42 | 43.61809 | 1.38076 | 494 ft | 21 kts | 143° |
| 2026-05-04 15:42 | 43.61727 | 1.38161 | 494 ft | 11 kts | 145° |
| 2026-05-04 15:42 | 43.61657 | 1.38166 | 485 ft | 11 kts | 213° |
| 2026-05-04 15:42 | 43.61607 | 1.38077 | 492 ft | 12 kts | 233° |
| 2026-05-04 15:43 | 43.61586 | 1.38013 | 492 ft | 6 kts | 277° |
| 2026-05-04 15:43 | 43.61616 | 1.37968 | 494 ft | 7 kts | 322° |
| 2026-05-04 15:43 | 43.61705 | 1.37876 | 494 ft | 43 kts | 323° |
| 2026-05-04 15:43 | 43.62184 | 1.37376 | 494 ft | 125 kts | 323° |
| 2026-05-04 15:44 | 43.62989 | 1.36539 | 895 ft | 148 kts | 322° |
| 2026-05-04 15:44 | 43.63813 | 1.35676 | 1608 ft | 155 kts | 321° |
| 2026-05-04 15:44 | 43.64711 | 1.34694 | 2010 ft | 178 kts | 321° |
| 2026-05-04 15:44 | 43.65753 | 1.33548 | 2424 ft | 204 kts | 321° |
| 2026-05-04 15:45 | 43.66931 | 1.32255 | 2974 ft | 228 kts | 321° |
| 2026-05-04 15:45 | 43.68240 | 1.30829 | 3635 ft | 248 kts | 322° |
| 2026-05-04 15:45 | 43.69846 | 1.29882 | 4542 ft | 261 kts | 353° |
| 2026-05-04 15:45 | 43.71641 | 1.30400 | 5457 ft | 273 kts | 28° |
| 2026-05-04 15:46 | 43.73006 | 1.32255 | 6413 ft | 281 kts | 56° |
| 2026-05-04 15:46 | 43.73979 | 1.34623 | 7366 ft | 286 kts | 61° |
| 2026-05-04 15:46 | 43.74945 | 1.37052 | 8319 ft | 291 kts | 61° |
| 2026-05-04 15:46 | 43.75923 | 1.39522 | 9258 ft | 296 kts | 62° |
| 2026-05-04 15:47 | 43.76919 | 1.42049 | 10172 ft | 302 kts | 62° |
| 2026-05-04 15:47 | 43.77963 | 1.44703 | 10587 ft | 325 kts | 62° |
| 2026-05-04 15:47 | 43.79059 | 1.47501 | 11268 ft | 335 kts | 62° |
| 2026-05-04 15:47 | 43.80177 | 1.50357 | 12102 ft | 340 kts | 62° |
| 2026-05-04 15:48 | 43.81304 | 1.53257 | 12949 ft | 345 kts | 63° |
| 2026-05-04 15:48 | 43.82484 | 1.56177 | 13760 ft | 350 kts | 60° |
| 2026-05-04 15:48 | 43.85138 | 1.61934 | 15218 ft | 359 kts | 57° |
| 2026-05-04 15:49 | 43.86534 | 1.64830 | 15930 ft | 364 kts | 57° |
| 2026-05-04 15:49 | 43.87951 | 1.67761 | 16649 ft | 368 kts | 58° |
| 2026-05-04 15:49 | 43.89378 | 1.70735 | 17347 ft | 373 kts | 58° |
| 2026-05-04 15:49 | 43.90813 | 1.73755 | 18052 ft | 378 kts | 58° |
| 2026-05-04 15:50 | 43.92259 | 1.76827 | 18678 ft | 382 kts | 59° |
| 2026-05-04 15:50 | 43.93709 | 1.79930 | 19298 ft | 386 kts | 59° |
| 2026-05-04 15:50 | 43.95178 | 1.83080 | 19907 ft | 390 kts | 59° |
| 2026-05-04 15:50 | 43.96663 | 1.86265 | 20522 ft | 395 kts | 59° |
| 2026-05-04 15:51 | 43.98164 | 1.89481 | 21120 ft | 399 kts | 59° |
| 2026-05-04 15:51 | 43.99683 | 1.92732 | 21720 ft | 404 kts | 59° |
| 2026-05-04 15:51 | 44.01225 | 1.96027 | 22309 ft | 409 kts | 59° |
| 2026-05-04 15:51 | 44.02760 | 1.99314 | 22894 ft | 413 kts | 59° |
| 2026-05-04 15:52 | 44.04350 | 2.02725 | 23469 ft | 418 kts | 59° |
| 2026-05-04 15:52 | 44.05931 | 2.06129 | 23960 ft | 422 kts | 59° |
| 2026-05-04 15:52 | 44.07527 | 2.09569 | 24462 ft | 425 kts | 59° |
| 2026-05-04 15:52 | 44.09114 | 2.12990 | 24949 ft | 428 kts | 59° |
| 2026-05-04 15:53 | 44.10734 | 2.16485 | 25442 ft | 431 kts | 59° |
| 2026-05-04 15:53 | 44.12363 | 2.20011 | 25937 ft | 434 kts | 59° |
| 2026-05-04 15:53 | 44.13999 | 2.23557 | 26400 ft | 437 kts | 59° |
| 2026-05-04 15:53 | 44.15645 | 2.27126 | 26864 ft | 440 kts | 59° |
| 2026-05-04 15:54 | 44.17306 | 2.30734 | 27323 ft | 443 kts | 59° |
| 2026-05-04 15:54 | 44.18970 | 2.34349 | 27766 ft | 446 kts | 59° |
| 2026-05-04 15:54 | 44.20659 | 2.38019 | 28220 ft | 450 kts | 59° |
| 2026-05-04 15:54 | 44.22351 | 2.41701 | 28681 ft | 454 kts | 59° |
| 2026-05-04 15:55 | 44.24058 | 2.45420 | 29130 ft | 457 kts | 59° |
| 2026-05-04 15:55 | 44.25780 | 2.49177 | 29587 ft | 461 kts | 59° |
| 2026-05-04 15:55 | 44.27513 | 2.52957 | 29894 ft | 464 kts | 59° |
| 2026-05-04 15:55 | 44.29241 | 2.56723 | 29948 ft | 453 kts | 59° |
| 2026-05-04 15:56 | 44.30904 | 2.60353 | 29948 ft | 436 kts | 59° |
| 2026-05-04 15:56 | 44.32508 | 2.63866 | 29945 ft | 425 kts | 60° |
| 2026-05-04 15:56 | 44.35653 | 2.70795 | 29953 ft | 421 kts | 60° |
| 2026-05-04 15:57 | 44.38780 | 2.77704 | 29952 ft | 420 kts | 60° |
| 2026-05-04 15:57 | 44.41907 | 2.84624 | 29956 ft | 421 kts | 60° |
| 2026-05-04 15:58 | 44.45064 | 2.91625 | 29962 ft | 429 kts | 60° |
| 2026-05-04 15:58 | 44.48232 | 2.98643 | 29961 ft | 429 kts | 60° |
| 2026-05-04 15:59 | 44.51416 | 3.05722 | 29960 ft | 429 kts | 60° |
| 2026-05-04 15:59 | 44.54595 | 3.12807 | 29943 ft | 430 kts | 60° |
| 2026-05-04 16:00 | 44.57772 | 3.19910 | 29957 ft | 430 kts | 60° |
| 2026-05-04 16:00 | 44.60957 | 3.27034 | 29968 ft | 432 kts | 60° |
| 2026-05-04 16:01 | 44.64145 | 3.34186 | 29969 ft | 432 kts | 60° |
| 2026-05-04 16:01 | 44.67276 | 3.41393 | 29962 ft | 430 kts | 68° |
| 2026-05-04 16:02 | 44.68245 | 3.45303 | 29969 ft | 423 kts | 80° |
| 2026-05-04 16:02 | 44.68969 | 3.49313 | 29967 ft | 423 kts | 80° |
| 2026-05-04 16:03 | 44.71102 | 3.61363 | 29965 ft | 424 kts | 81° |
| 2026-05-04 16:03 | 44.72509 | 3.69418 | 29959 ft | 425 kts | 81° |
| 2026-05-04 16:04 | 44.73925 | 3.77495 | 29968 ft | 425 kts | 81° |
| 2026-05-04 16:04 | 44.76028 | 3.89568 | 29973 ft | 426 kts | 81° |
| 2026-05-04 16:05 | 44.77429 | 3.97683 | 29980 ft | 427 kts | 81° |
| 2026-05-04 16:06 | 44.79527 | 4.09863 | 29992 ft | 427 kts | 81° |
| 2026-05-04 16:07 | 44.82306 | 4.26137 | 29994 ft | 427 kts | 81° |
| 2026-05-04 16:08 | 44.85059 | 4.42432 | 30010 ft | 428 kts | 81° |
| 2026-05-04 16:09 | 44.88461 | 4.62750 | 30008 ft | 427 kts | 81° |
| 2026-05-04 16:10 | 44.91154 | 4.79083 | 30013 ft | 427 kts | 81° |
| 2026-05-04 16:11 | 44.93833 | 4.95378 | 30011 ft | 425 kts | 80° |
| 2026-05-04 16:12 | 44.97791 | 5.19776 | 30007 ft | 424 kts | 80° |
| 2026-05-04 16:13 | 45.00383 | 5.36030 | 30002 ft | 424 kts | 80° |
| 2026-05-04 16:14 | 45.02746 | 5.50913 | 29990 ft | 423 kts | 80° |
| 2026-05-04 16:16 | 45.05930 | 5.71218 | 29990 ft | 423 kts | 80° |
| 2026-05-04 16:16 | 45.07410 | 5.83459 | 29994 ft | 418 kts | 94° |
| 2026-05-04 16:17 | 45.06937 | 5.91603 | 30000 ft | 415 kts | 99° |
| 2026-05-04 16:18 | 45.05857 | 6.07861 | 30024 ft | 415 kts | 99° |
| 2026-05-04 16:19 | 45.04457 | 6.28150 | 30049 ft | 416 kts | 99° |
| 2026-05-04 16:20 | 45.03008 | 6.48512 | 30070 ft | 417 kts | 99° |
| 2026-05-04 16:22 | 45.01526 | 6.68892 | 30089 ft | 418 kts | 99° |
| 2026-05-04 16:23 | 44.99736 | 6.93424 | 30099 ft | 419 kts | 99° |
| 2026-05-04 16:24 | 44.98797 | 7.09797 | 29097 ft | 418 kts | 95° |
| 2026-05-04 16:25 | 44.98586 | 7.17970 | 28537 ft | 415 kts | 95° |
| 2026-05-04 16:26 | 44.98061 | 7.34066 | 27466 ft | 406 kts | 96° |
| 2026-05-04 16:26 | 44.97611 | 7.45866 | 26262 ft | 398 kts | 96° |
| 2026-05-04 16:27 | 44.97330 | 7.53269 | 25354 ft | 395 kts | 96° |
| 2026-05-04 16:28 | 44.96874 | 7.64866 | 23859 ft | 393 kts | 96° |
| 2026-05-04 16:28 | 44.96426 | 7.76370 | 22325 ft | 388 kts | 96° |
| 2026-05-04 16:29 | 44.95812 | 7.91318 | 20447 ft | 377 kts | 96° |
| 2026-05-04 16:30 | 44.95350 | 8.02317 | 19074 ft | 372 kts | 96° |
| 2026-05-04 16:31 | 44.95037 | 8.09572 | 18149 ft | 369 kts | 96° |
| 2026-05-04 16:31 | 44.94567 | 8.20282 | 16821 ft | 360 kts | 96° |
| 2026-05-04 16:32 | 44.94532 | 8.30753 | 15647 ft | 355 kts | 78° |
| 2026-05-04 16:33 | 44.95837 | 8.37280 | 15244 ft | 339 kts | 76° |
| 2026-05-04 16:33 | 44.97095 | 8.43637 | 14450 ft | 334 kts | 76° |
| 2026-05-04 16:34 | 44.98325 | 8.49909 | 13570 ft | 329 kts | 76° |
| 2026-05-04 16:34 | 44.98935 | 8.53008 | 13114 ft | 326 kts | 76° |
| 2026-05-04 16:35 | 45.02864 | 8.60393 | 11800 ft | 320 kts | 28° |
| 2026-05-04 16:35 | 45.08917 | 8.63927 | 10292 ft | 312 kts | 22° |
| 2026-05-04 16:36 | 45.10924 | 8.65071 | 9782 ft | 309 kts | 22° |
| 2026-05-04 16:36 | 45.14859 | 8.67316 | 8697 ft | 301 kts | 22° |
| 2026-05-04 16:37 | 45.18686 | 8.69506 | 7781 ft | 292 kts | 23° |
| 2026-05-04 16:37 | 45.20558 | 8.70580 | 7354 ft | 289 kts | 23° |
| 2026-05-04 16:37 | 45.24262 | 8.72704 | 6431 ft | 285 kts | 22° |
| 2026-05-04 16:38 | 45.27875 | 8.74782 | 5854 ft | 270 kts | 22° |
| 2026-05-04 16:39 | 45.32795 | 8.77613 | 5547 ft | 236 kts | 23° |
| 2026-05-04 16:39 | 45.35685 | 8.79278 | 5353 ft | 216 kts | 22° |
| 2026-05-04 16:40 | 45.38604 | 8.79801 | 5140 ft | 208 kts | 358° |
| 2026-05-04 16:40 | 45.41446 | 8.79276 | 4680 ft | 208 kts | 349° |
| 2026-05-04 16:41 | 45.44279 | 8.78508 | 4175 ft | 204 kts | 348° |
| 2026-05-04 16:41 | 45.48339 | 8.77394 | 3347 ft | 188 kts | 348° |
| 2026-05-04 16:42 | 45.52062 | 8.76371 | 2620 ft | 172 kts | 348° |
| 2026-05-04 16:43 | 45.54335 | 8.75746 | 2177 ft | 160 kts | 348° |
| 2026-05-04 16:43 | 45.56354 | 8.75190 | 1787 ft | 142 kts | 347° |
| 2026-05-04 16:43 | 45.57315 | 8.74925 | 1601 ft | 139 kts | 348° |
| 2026-05-04 16:44 | 45.61080 | 8.73886 | 871 ft | 137 kts | 347° |
| 2026-05-04 16:45 | 45.62793 | 8.73412 | 737 ft | 92 kts | 349° |
| 2026-05-04 16:46 | 45.63671 | 8.73116 | 740 ft | 19 kts | 327° |
| 2026-05-04 16:46 | 45.63837 | 8.72868 | 736 ft | 15 kts | 304° |
| 2026-05-04 16:47 | 45.63953 | 8.72614 | 736 ft | 11 kts | 290° |
| 2026-05-04 16:47 | 45.63941 | 8.72373 | 736 ft | 12 kts | 294° |
| 2026-05-04 16:48 | 45.64254 | 8.72263 | 736 ft | 19 kts | 349° |
| 2026-05-04 16:48 | 45.64363 | 8.72233 | 735 ft | 13 kts | 349° |
| 2026-05-04 16:49 | 45.64499 | 8.72120 | 737 ft | 13 kts | 349° |
| 2026-05-04 16:49 | 45.64612 | 8.72089 | 735 ft | 4 kts | 349° |
| 2026-05-04 16:50 | 45.64637 | 8.72154 | 736 ft | 3 kts | 77° |
| 2026-05-04 16:50 | 45.64641 | 8.72181 | 736 ft | 0 kts | 77° |